Time;durP1;ratioP1;P1;durP2;ratioP2;P2;SDS_P1;SDS_P2;PMS_P1;PMS_P2;Temp;Humidity;BMP_temperature;BMP_pressure;BME280_temperature;BME280_humidity;BME280_pressure;Samples;Min_cycle;Max_cycle;Signal;HPM_P1;HPM_P2
2022/11/11 00:00:03;;;;;;;59.90;31.20;;;;;;;7.94;100.00;102245.02;108475;1250;71627;-73
2022/11/11 00:03:10;;;;;;;59.00;30.30;;;;;;;8.00;100.00;102244.64;108345;1260;61595;-73
2022/11/11 00:06:08;;;;;;;54.90;29.60;;;;;;;8.00;100.00;102244.96;108345;1260;62660;-73
2022/11/11 00:08:55;;;;;;;58.50;29.60;;;;;;;7.99;100.00;102239.63;108327;1257;57337;-73
2022/11/11 00:11:42;;;;;;;56.90;31.70;;;;;;;8.02;100.00;102243.51;108343;1257;57731;-72
2022/11/11 00:14:29;;;;;;;59.60;31.30;;;;;;;8.03;100.00;102246.42;108343;1257;64559;-73
2022/11/11 00:26:36;;;;;;;60.40;30.20;;;;;;;8.16;100.00;102248.36;108227;1254;62690;-72
2022/11/11 00:29:26;;;;;;;62.60;32.30;;;;;;;8.16;100.00;102244.90;108245;1248;57673;-72
2022/11/11 00:32:23;;;;;;;61.10;32.10;;;;;;;8.05;100.00;102246.36;108209;1257;62847;-72
2022/11/11 00:41:25;;;;;;;53.60;27.20;;;;;;;8.05;100.00;102249.98;108279;1256;62887;-73
2022/11/11 00:44:12;;;;;;;60.10;33.10;;;;;;;8.07;100.00;102257.40;108065;1262;62134;-72
2022/11/11 00:53:25;;;;;;;47.50;26.40;;;;;;;8.11;100.00;102259.13;108493;1249;61864;-71
2022/11/11 00:56:13;;;;;;;43.60;25.80;;;;;;;8.14;100.00;102259.55;108297;1253;60024;-71
2022/11/11 00:59:04;;;;;;;46.10;26.60;;;;;;;8.16;100.00;102266.39;108329;1254;62221;-71
2022/11/11 01:01:51;;;;;;;45.10;26.60;;;;;;;8.17;100.00;102267.57;108364;1248;63417;-72
2022/11/11 01:04:38;;;;;;;53.00;28.30;;;;;;;8.16;100.00;102263.79;108402;1262;57130;-72
2022/11/11 01:07:25;;;;;;;43.50;25.10;;;;;;;8.20;100.00;102265.38;108308;1258;72464;-72
2022/11/11 01:10:12;;;;;;;48.30;27.60;;;;;;;8.24;100.00;102265.23;108492;1252;72063;-73
2022/11/11 01:13:10;;;;;;;54.70;30.20;;;;;;;8.29;100.00;102263.83;108465;1251;71337;-72
2022/11/11 01:16:03;;;;;;;52.10;29.40;;;;;;;8.27;100.00;102265.84;108358;1254;65180;-72
2022/11/11 01:18:51;;;;;;;49.80;27.80;;;;;;;8.26;100.00;102265.17;108348;1260;56986;-72
2022/11/11 01:21:38;;;;;;;50.80;28.40;;;;;;;8.29;100.00;102267.83;108175;1257;59474;-73
2022/11/11 01:24:26;;;;;;;48.40;29.20;;;;;;;8.30;100.00;102265.17;108535;1249;74314;-73
2022/11/11 01:27:13;;;;;;;50.00;27.80;;;;;;;8.31;100.00;102271.57;108388;1248;72411;-76
2022/11/11 01:30:00;;;;;;;45.80;27.40;;;;;;;8.33;100.00;102275.15;108224;1260;70996;-73
2022/11/11 01:32:47;;;;;;;47.40;27.60;;;;;;;8.29;100.00;102275.63;108261;1263;62391;-73
2022/11/11 01:35:38;;;;;;;50.10;28.50;;;;;;;8.31;100.00;102276.09;108368;1257;57186;-73
2022/11/11 01:38:26;;;;;;;48.50;27.80;;;;;;;8.29;100.00;102279.84;108383;1260;59141;-72
2022/11/11 01:41:32;;;;;;;43.30;24.60;;;;;;;8.31;100.00;102281.98;108321;1251;73824;-72
2022/11/11 01:44:45;;;;;;;47.10;27.40;;;;;;;8.35;100.00;102284.48;108451;1249;61218;-71
2022/11/11 01:49:17;;;;;;;44.00;26.30;;;;;;;8.38;100.00;102287.64;108469;1260;70184;-75
2022/11/11 01:51:09;;;;;;;46.40;26.70;;;;;;;8.40;100.00;102286.02;108460;1246;71546;-71
2022/11/11 01:54:01;;;;;;;46.10;26.70;;;;;;;8.38;100.00;102290.08;108443;1257;57539;-72
2022/11/11 01:56:54;;;;;;;44.30;26.50;;;;;;;8.40;100.00;102290.55;108446;1255;61017;-71
2022/11/11 01:59:45;;;;;;;48.20;27.70;;;;;;;8.39;100.00;102289.35;108465;1257;64300;-72
2022/11/11 02:02:43;;;;;;;48.60;28.60;;;;;;;8.37;100.00;102285.23;108512;1253;61525;-72
2022/11/11 02:05:46;;;;;;;44.90;26.80;;;;;;;8.38;100.00;102288.16;108409;1258;70373;-72
2022/11/11 02:08:36;;;;;;;46.00;27.20;;;;;;;8.41;100.00;102284.27;108430;1257;73293;-70
2022/11/11 02:14:38;;;;;;;45.00;26.50;;;;;;;8.43;100.00;102283.98;108470;1254;61014;-71
2022/11/11 02:17:30;;;;;;;43.60;23.90;;;;;;;8.45;100.00;102288.59;108360;1253;63582;-71
2022/11/11 02:20:22;;;;;;;43.20;25.10;;;;;;;8.54;100.00;102289.45;108513;1252;72124;-72
2022/11/11 02:23:17;;;;;;;42.70;25.90;;;;;;;8.53;100.00;102290.36;108406;1249;60081;-71
2022/11/11 02:26:07;;;;;;;46.30;25.70;;;;;;;8.53;100.00;102297.52;108394;1257;73753;-72
2022/11/11 02:28:55;;;;;;;44.20;26.10;;;;;;;8.58;100.00;102300.09;108456;1257;63197;-71
2022/11/11 02:31:43;;;;;;;45.30;26.60;;;;;;;8.60;100.00;102308.54;108425;1260;61250;-71
2022/11/11 02:34:32;;;;;;;49.10;27.60;;;;;;;8.61;100.00;102311.61;108453;1251;63375;-71
2022/11/11 02:37:25;;;;;;;47.10;27.30;;;;;;;8.63;100.00;102310.67;108641;1247;61541;-71
2022/11/11 02:41:55;;;;;;;50.40;28.30;;;;;;;8.59;100.00;102313.95;108492;1257;59930;-71
2022/11/11 02:43:45;;;;;;;48.90;27.10;;;;;;;8.61;100.00;102312.29;108463;1251;63169;-71
2022/11/11 02:46:32;;;;;;;50.50;28.50;;;;;;;8.63;100.00;102303.55;108496;1251;62879;-71
2022/11/11 02:49:19;;;;;;;47.20;27.30;;;;;;;8.60;100.00;102311.13;108399;1264;60033;-71
2022/11/11 02:52:06;;;;;;;50.20;28.70;;;;;;;8.61;100.00;102313.00;108431;1251;73441;-71
2022/11/11 02:54:53;;;;;;;48.20;26.60;;;;;;;8.62;100.00;102313.82;108582;1252;72121;-70
2022/11/11 02:57:41;;;;;;;47.80;26.90;;;;;;;8.65;100.00;102318.41;108499;1257;69649;-71
2022/11/11 03:00:28;;;;;;;48.90;27.60;;;;;;;8.64;100.00;102319.81;108488;1257;63348;-71
2022/11/11 03:03:15;;;;;;;51.30;27.80;;;;;;;8.64;100.00;102319.30;108422;1251;57880;-70
2022/11/11 03:06:03;;;;;;;45.80;27.60;;;;;;;8.66;100.00;102320.08;108419;1247;61112;-70
2022/11/11 03:08:50;;;;;;;46.20;27.00;;;;;;;8.69;100.00;102321.02;108418;1260;72508;-71
2022/11/11 03:11:37;;;;;;;43.80;25.80;;;;;;;8.72;100.00;102322.61;108536;1255;61103;-70
2022/11/11 03:14:25;;;;;;;46.50;27.00;;;;;;;8.68;100.00;102316.36;108516;1256;69433;-71
2022/11/11 03:23:24;;;;;;;42.40;23.50;;;;;;;8.69;100.00;102317.52;108206;1257;57731;-72
2022/11/11 03:26:11;;;;;;;45.30;25.20;;;;;;;8.67;100.00;102318.68;108385;1254;73379;-69
2022/11/11 03:28:58;;;;;;;47.20;25.70;;;;;;;8.70;100.00;102322.54;108516;1248;62003;-69
2022/11/11 03:31:45;;;;;;;49.90;27.30;;;;;;;8.70;100.00;102320.27;108400;1261;59113;-71
2022/11/11 03:34:32;;;;;;;47.30;27.30;;;;;;;8.69;100.00;102317.55;108368;1247;73103;-72
2022/11/11 03:40:24;;;;;;;49.20;26.30;;;;;;;8.67;100.00;102321.08;108408;1255;57625;-71
2022/11/11 03:43:14;;;;;;;42.60;25.30;;;;;;;8.69;100.00;102325.89;108382;1250;73510;-71
2022/11/11 03:46:04;;;;;;;46.00;26.20;;;;;;;8.69;100.00;102324.67;108440;1255;61937;-72
2022/11/11 03:48:51;;;;;;;41.90;24.70;;;;;;;8.68;100.00;102326.44;108390;1257;69094;-71
2022/11/11 03:51:38;;;;;;;42.30;24.60;;;;;;;8.71;100.00;102328.91;108379;1250;73651;-71
2022/11/11 03:54:25;;;;;;;38.90;24.00;;;;;;;8.69;100.00;102329.87;108366;1256;63411;-72
2022/11/11 03:57:30;;;;;;;39.80;23.70;;;;;;;8.73;100.00;102333.02;108405;1252;57151;-71
2022/11/11 04:00:21;;;;;;;42.30;24.90;;;;;;;8.73;100.00;102338.92;108359;1257;73385;-71
2022/11/11 04:16:04;;;;;;;41.50;23.00;;;;;;;8.74;100.00;102348.59;108371;1251;62480;-71
2022/11/11 04:21:52;;;;;;;33.30;21.00;;;;;;;8.80;100.00;102349.42;108643;1255;61145;-71
2022/11/11 04:29:27;;;;;;;34.50;22.00;;;;;;;8.83;100.00;102348.09;108480;1247;72426;-71
2022/11/11 04:30:52;;;;;;;38.60;23.30;;;;;;;8.80;100.00;102347.00;108356;1257;57009;-71
2022/11/11 04:33:39;;;;;;;38.60;22.70;;;;;;;8.79;100.00;102352.10;108376;1257;57777;-70
2022/11/11 04:36:26;;;;;;;37.90;22.90;;;;;;;8.81;100.00;102352.88;108452;1251;63337;-74
2022/11/11 04:42:18;;;;;;;39.50;23.40;;;;;;;8.82;100.00;102363.61;108411;1260;59084;-72
2022/11/11 04:45:26;;;;;;;39.50;23.40;;;;;;;8.79;100.00;102368.39;108367;1256;63539;-73
2022/11/11 04:48:16;;;;;;;38.40;22.30;;;;;;;8.81;100.00;102369.52;108298;1249;62068;-73
2022/11/11 04:51:04;;;;;;;35.90;22.20;;;;;;;8.82;100.00;102374.54;108431;1253;59583;-72
2022/11/11 04:53:51;;;;;;;39.10;22.70;;;;;;;8.82;100.00;102374.70;108373;1260;63443;-73
2022/11/11 04:56:48;;;;;;;39.90;23.30;;;;;;;8.78;100.00;102373.98;108481;1261;72103;-71
2022/11/11 04:59:36;;;;;;;38.00;22.20;;;;;;;8.80;100.00;102377.23;108397;1254;70622;-76
2022/11/11 05:08:54;;;;;;;34.60;20.20;;;;;;;8.92;100.00;102383.17;108382;1250;58095;-74
2022/11/11 05:08:55;;;;;;;36.30;20.00;;;;;;;8.98;100.00;102385.02;108273;1253;60326;-74
2022/11/11 05:11:43;;;;;;;38.50;20.50;;;;;;;8.92;100.00;102392.56;108381;1251;63523;-75
2022/11/11 05:21:19;;;;;;;33.70;20.50;;;;;;;8.86;100.00;102394.19;108397;1256;68454;-76
2022/11/11 05:21:21;;;;;;;36.00;20.50;;;;;;;8.81;100.00;102400.61;108299;1257;64609;-75
2022/11/11 05:27:14;;;;;;;31.10;18.80;;;;;;;8.80;100.00;102413.70;108503;1254;60568;-76
2022/11/11 05:30:06;;;;;;;36.50;20.00;;;;;;;8.81;100.00;102416.27;108459;1251;64018;-77
2022/11/11 05:32:54;;;;;;;33.00;19.90;;;;;;;8.81;100.00;102418.37;108489;1244;71445;-76
2022/11/11 05:35:44;;;;;;;32.30;19.90;;;;;;;8.78;100.00;102422.48;108215;1255;70221;-78
2022/11/11 05:38:31;;;;;;;36.20;20.00;;;;;;;8.76;100.00;102421.14;108391;1250;74447;-75
2022/11/11 05:41:21;;;;;;;35.50;20.40;;;;;;;8.77;100.00;102427.34;108473;1259;57323;-76
2022/11/11 05:44:09;;;;;;;30.70;19.20;;;;;;;8.80;100.00;102429.18;108384;1261;57162;-75
2022/11/11 05:46:57;;;;;;;33.60;18.90;;;;;;;8.78;100.00;102430.98;108409;1252;62938;-78
2022/11/11 05:49:44;;;;;;;34.80;19.20;;;;;;;8.80;100.00;102431.59;108512;1252;71386;-76
2022/11/11 05:52:31;;;;;;;30.70;18.30;;;;;;;8.82;100.00;102432.77;108290;1253;59568;-78
2022/11/11 05:55:19;;;;;;;33.40;17.10;;;;;;;8.83;100.00;102434.80;108403;1251;63403;-77
2022/11/11 05:58:07;;;;;;;34.20;19.50;;;;;;;8.81;100.00;102437.48;108499;1260;57171;-75
2022/11/11 06:00:54;;;;;;;30.00;17.70;;;;;;;8.81;100.00;102442.35;108614;1252;57151;-75
2022/11/11 06:03:42;;;;;;;33.40;18.20;;;;;;;8.87;100.00;102445.07;108457;1257;63111;-76
2022/11/11 06:06:35;;;;;;;34.00;18.30;;;;;;;8.89;100.00;102445.70;108381;1251;61611;-77
2022/11/11 06:09:23;;;;;;;32.10;17.50;;;;;;;8.90;100.00;102449.99;108231;1256;59966;-77
2022/11/11 06:12:11;;;;;;;29.50;17.60;;;;;;;8.88;100.00;102458.05;108455;1253;63253;-75
2022/11/11 06:14:58;;;;;;;35.50;19.30;;;;;;;8.86;100.00;102464.03;108584;1249;61995;-74
2022/11/11 06:17:46;;;;;;;33.80;19.10;;;;;;;8.86;100.00;102469.94;108393;1258;61904;-76
2022/11/11 06:20:36;;;;;;;31.90;19.00;;;;;;;8.88;100.00;102478.55;108412;1260;62100;-74
2022/11/11 06:23:25;;;;;;;32.40;18.50;;;;;;;8.93;100.00;102477.67;108547;1252;61644;-76
2022/11/11 06:26:13;;;;;;;32.90;19.00;;;;;;;8.88;100.00;102482.73;107965;1256;355992;-77
2022/11/11 06:29:03;;;;;;;32.30;18.40;;;;;;;8.86;100.00;102486.45;108329;1257;63543;-78
2022/11/11 06:31:50;;;;;;;32.60;17.90;;;;;;;8.92;100.00;102487.60;108320;1260;62878;-75
2022/11/11 06:34:37;;;;;;;32.90;18.80;;;;;;;8.94;100.00;102488.59;108429;1250;57171;-77
2022/11/11 06:37:25;;;;;;;30.60;18.10;;;;;;;8.96;100.00;102491.13;108339;1254;62911;-75
2022/11/11 06:40:12;;;;;;;33.40;18.90;;;;;;;8.96;100.00;102489.20;108523;1253;70889;-75
2022/11/11 06:43:06;;;;;;;32.30;18.60;;;;;;;8.97;100.00;102489.50;108387;1254;70092;-77
2022/11/11 06:45:54;;;;;;;34.60;19.70;;;;;;;9.01;100.00;102492.14;108256;1263;62694;-74
2022/11/11 06:48:42;;;;;;;37.10;19.00;;;;;;;9.01;100.00;102490.38;108350;1257;57506;-74
2022/11/11 06:51:29;;;;;;;29.60;17.10;;;;;;;9.07;100.00;102495.41;108407;1260;57603;-76
2022/11/11 06:54:16;;;;;;;31.10;18.00;;;;;;;9.04;100.00;102500.02;108314;1254;62700;-75
2022/11/11 06:57:03;;;;;;;31.50;18.70;;;;;;;9.05;100.00;102505.20;108342;1254;60871;-76
2022/11/11 06:59:54;;;;;;;28.90;17.10;;;;;;;9.04;100.00;102503.84;108238;1261;59093;-75
2022/11/11 07:02:42;;;;;;;33.40;17.90;;;;;;;9.12;100.00;102505.46;108358;1254;63548;-76
2022/11/11 07:05:31;;;;;;;33.20;18.50;;;;;;;9.05;100.00;102513.38;108266;1257;62882;-76
2022/11/11 07:08:19;;;;;;;33.60;18.50;;;;;;;9.15;100.00;102516.62;108465;1248;57675;-74
2022/11/11 07:11:06;;;;;;;33.30;19.20;;;;;;;9.17;100.00;102518.13;108507;1252;72610;-76
2022/11/11 07:14:05;;;;;;;30.80;17.30;;;;;;;9.22;100.00;102518.61;108432;1259;61958;-75
2022/11/11 07:16:52;;;;;;;29.50;17.10;;;;;;;9.28;100.00;102515.97;108402;1257;68489;-77
2022/11/11 07:19:41;;;;;;;34.30;18.50;;;;;;;9.34;100.00;102516.96;108391;1263;72022;-77
2022/11/11 07:22:29;;;;;;;35.70;20.70;;;;;;;9.38;100.00;102518.73;108223;1254;63240;-77
2022/11/11 07:25:25;;;;;;;34.00;19.40;;;;;;;9.40;100.00;102519.68;108272;1250;57112;-76
2022/11/11 07:28:13;;;;;;;34.90;21.50;;;;;;;9.50;100.00;102528.35;108361;1258;62961;-75
2022/11/11 07:31:01;;;;;;;35.80;19.60;;;;;;;9.42;100.00;102534.91;108490;1258;72138;-74
2022/11/11 07:33:48;;;;;;;36.60;20.40;;;;;;;9.47;100.00;102532.11;108383;1256;60428;-77
2022/11/11 07:36:37;;;;;;;35.40;19.90;;;;;;;9.57;100.00;102534.35;108346;1253;74546;-74
2022/11/11 07:39:27;;;;;;;45.10;26.20;;;;;;;9.63;100.00;102536.02;108347;1257;57590;-75
2022/11/11 07:42:18;;;;;;;35.70;19.30;;;;;;;9.67;100.00;102534.09;108414;1260;57052;-74
2022/11/11 07:45:18;;;;;;;35.50;17.70;;;;;;;9.77;100.00;102531.27;108248;1252;72809;-76
2022/11/11 07:48:05;;;;;;;32.90;18.10;;;;;;;9.86;99.78;102526.73;108455;1248;62337;-77
2022/11/11 07:50:55;;;;;;;35.90;18.70;;;;;;;9.93;99.30;102529.07;108254;1257;67165;-76
2022/11/11 07:53:45;;;;;;;38.30;19.40;;;;;;;9.95;100.00;102526.74;108223;1253;72432;-77
2022/11/11 07:56:32;;;;;;;36.00;20.10;;;;;;;10.05;100.00;102524.23;108289;1256;57566;-77
2022/11/11 07:59:19;;;;;;;34.10;20.10;;;;;;;10.06;99.64;102529.58;108452;1255;57076;-76
2022/11/11 08:02:11;;;;;;;37.00;20.00;;;;;;;10.01;99.40;102535.01;108164;1256;62940;-78
2022/11/11 08:04:58;;;;;;;34.90;18.50;;;;;;;10.22;98.32;102535.01;108346;1248;71686;-75
2022/11/11 08:07:47;;;;;;;36.20;18.80;;;;;;;10.23;97.99;102536.55;108370;1252;70450;-76
2022/11/11 08:10:37;;;;;;;28.40;16.00;;;;;;;10.16;97.73;102536.31;108181;1263;62896;-76
2022/11/11 08:13:43;;;;;;;37.30;20.10;;;;;;;10.34;96.69;102539.92;108263;1253;57126;-77
2022/11/11 08:16:30;;;;;;;34.80;19.20;;;;;;;10.30;96.32;102546.38;108088;1252;57088;-74
2022/11/11 08:19:17;;;;;;;33.40;19.40;;;;;;;10.36;96.34;102550.11;108197;1254;63068;-75
2022/11/11 08:22:05;;;;;;;35.50;18.40;;;;;;;10.41;96.79;102547.98;108324;1253;69752;-75
2022/11/11 08:24:52;;;;;;;31.00;17.40;;;;;;;10.56;94.98;102552.56;108215;1254;69685;-75
2022/11/11 08:28:04;;;;;;;39.50;20.40;;;;;;;10.60;94.93;102559.00;108234;1263;62436;-77
2022/11/11 08:30:51;;;;;;;33.10;19.10;;;;;;;10.59;94.34;102562.18;108195;1252;57477;-76
2022/11/11 08:33:38;;;;;;;32.20;17.30;;;;;;;10.62;94.30;102564.68;108369;1260;60320;-75
2022/11/11 08:36:25;;;;;;;36.00;19.70;;;;;;;10.61;94.03;102567.36;108372;1252;62661;-75
2022/11/11 08:39:14;;;;;;;33.70;19.40;;;;;;;10.52;94.20;102571.37;108521;1251;72295;-76
2022/11/11 08:42:01;;;;;;;34.50;20.50;;;;;;;10.48;93.60;102577.65;108457;1248;61132;-76
2022/11/11 08:44:50;;;;;;;36.10;20.00;;;;;;;10.37;93.50;102580.38;108331;1253;73839;-77
2022/11/11 08:47:39;;;;;;;35.80;20.30;;;;;;;10.30;94.84;102579.44;108266;1253;57606;-78
2022/11/11 08:50:26;;;;;;;35.70;20.50;;;;;;;10.21;95.74;102578.20;108221;1256;57145;-76
2022/11/11 08:53:14;;;;;;;38.00;19.30;;;;;;;10.31;94.46;102581.33;108361;1257;71503;-76
2022/11/11 08:56:03;;;;;;;38.30;22.00;;;;;;;10.25;94.15;102577.20;108437;1251;60763;-76
2022/11/11 08:58:52;;;;;;;32.70;16.60;;;;;;;10.22;94.99;102576.82;108271;1251;59980;-77
2022/11/11 09:01:41;;;;;;;38.90;20.70;;;;;;;10.21;95.95;102567.95;108244;1252;73742;-76
2022/11/11 09:04:28;;;;;;;41.30;21.30;;;;;;;10.29;97.65;102568.35;108538;1251;62548;-76
2022/11/11 09:07:31;;;;;;;38.30;21.00;;;;;;;10.42;96.94;102562.25;108303;1254;61204;-77
2022/11/11 09:10:18;;;;;;;37.30;21.80;;;;;;;10.64;95.53;102564.79;108277;1251;72111;-76
2022/11/11 09:13:05;;;;;;;39.00;20.70;;;;;;;10.82;95.67;102561.54;108489;1251;72896;-75
2022/11/11 09:15:54;;;;;;;40.90;20.60;;;;;;;11.07;93.92;102565.67;108361;1259;69454;-76
2022/11/11 09:18:41;;;;;;;38.20;21.80;;;;;;;11.20;92.63;102565.98;108390;1248;65143;-77
2022/11/11 09:21:29;;;;;;;39.10;21.30;;;;;;;11.17;92.69;102564.52;108297;1253;61273;-75
2022/11/11 09:24:15;;;;;;;35.30;20.30;;;;;;;11.13;92.47;102565.55;108390;1254;60986;-78
2022/11/11 09:27:02;;;;;;;38.50;20.70;;;;;;;11.24;90.87;102560.67;108498;1249;73803;-77
2022/11/11 09:29:50;;;;;;;34.30;20.50;;;;;;;11.32;90.07;102554.02;108623;1255;61249;-77
2022/11/11 09:32:37;;;;;;;33.70;20.00;;;;;;;11.33;89.79;102555.73;108481;1257;68892;-75
2022/11/11 09:35:24;;;;;;;35.40;21.10;;;;;;;11.28;89.79;102555.98;108295;1250;62788;-75
2022/11/11 09:38:12;;;;;;;34.60;20.90;;;;;;;11.26;90.09;102547.52;108369;1256;57314;-76
2022/11/11 09:41:24;;;;;;;36.90;21.50;;;;;;;11.32;90.60;102543.91;108384;1254;57077;-75
2022/11/11 09:44:55;;;;;;;39.20;21.40;;;;;;;11.37;90.45;102540.05;108349;1255;63368;-75
2022/11/11 09:47:49;;;;;;;38.50;20.50;;;;;;;11.49;90.00;102539.84;108404;1258;61689;-76
2022/11/11 09:50:39;;;;;;;32.20;20.10;;;;;;;11.65;88.66;102537.13;108321;1260;59979;-75
2022/11/11 09:53:37;;;;;;;35.90;20.80;;;;;;;11.63;89.63;102543.20;108373;1253;73538;-78
2022/11/11 09:56:27;;;;;;;36.30;20.60;;;;;;;11.64;88.20;102540.69;108336;1260;62917;-77
2022/11/11 09:59:31;;;;;;;35.80;21.20;;;;;;;11.73;86.49;102541.27;108268;1251;57114;-77
2022/11/11 10:02:44;;;;;;;36.30;21.30;;;;;;;11.68;86.71;102536.48;108352;1253;72657;-76
2022/11/11 10:05:38;;;;;;;37.40;21.70;;;;;;;11.76;86.13;102541.36;108453;1263;61921;-78
2022/11/11 10:08:43;;;;;;;38.90;22.90;;;;;;;11.64;86.41;102539.48;108400;1251;60015;-78
2022/11/11 10:11:39;;;;;;;35.50;19.30;;;;;;;11.71;86.24;102539.11;108258;1253;72285;-76
2022/11/11 10:14:48;;;;;;;43.80;22.50;;;;;;;11.67;86.27;102533.89;108379;1254;57646;-78
2022/11/11 10:18:00;;;;;;;36.70;21.70;;;;;;;11.56;86.43;102535.15;108221;1257;57599;-77
2022/11/11 10:20:54;;;;;;;37.00;21.70;;;;;;;11.57;86.97;102530.16;108209;1244;62978;-76
2022/11/11 10:23:47;;;;;;;35.10;20.20;;;;;;;11.61;86.71;102530.86;108233;1265;62262;-77
2022/11/11 10:26:39;;;;;;;36.60;21.50;;;;;;;11.53;86.44;102526.89;108341;1254;68781;-77
2022/11/11 10:29:49;;;;;;;38.10;20.40;;;;;;;11.61;86.29;102522.33;108309;1255;62779;-78
2022/11/11 10:32:37;;;;;;;34.80;21.00;;;;;;;11.60;85.49;102520.98;108317;1257;62935;-76
2022/11/11 10:35:31;;;;;;;37.10;21.10;;;;;;;11.58;85.64;102521.06;108391;1250;57050;-77
2022/11/11 10:38:49;;;;;;;34.10;18.70;;;;;;;11.62;85.31;102512.83;108421;1257;71538;-77
2022/11/11 10:41:48;;;;;;;36.70;21.80;;;;;;;11.53;85.37;102515.90;108517;1259;72074;-76
2022/11/11 10:44:36;;;;;;;34.10;19.30;;;;;;;11.54;85.59;102506.94;108445;1260;59421;-78
2022/11/11 10:47:43;;;;;;;35.20;20.00;;;;;;;11.74;84.35;102507.73;108359;1253;73768;-76
2022/11/11 10:50:37;;;;;;;35.90;20.60;;;;;;;11.73;84.52;102507.95;108335;1263;57595;-76
2022/11/11 10:53:31;;;;;;;39.80;21.30;;;;;;;11.86;84.15;102508.58;108383;1250;59394;-76
2022/11/11 10:56:57;;;;;;;37.40;21.40;;;;;;;11.76;83.99;102514.96;108299;1253;73904;-78
2022/11/11 10:59:55;;;;;;;38.70;21.80;;;;;;;11.76;84.17;102510.81;108536;1263;61606;-77
2022/11/11 11:03:03;;;;;;;32.90;19.90;;;;;;;11.89;84.65;102509.66;108261;1253;70371;-77
2022/11/11 11:05:55;;;;;;;33.90;20.70;;;;;;;11.93;83.14;102503.86;108212;1257;74072;-77
2022/11/11 11:08:51;;;;;;;37.50;22.90;;;;;;;11.86;83.41;102502.80;108399;1255;57098;-77
2022/11/11 11:11:58;;;;;;;32.40;20.20;;;;;;;11.89;83.08;102506.17;108273;1264;60787;-78
2022/11/11 11:14:53;;;;;;;27.80;17.60;;;;;;;12.00;83.09;102496.00;108196;1252;71787;-78
2022/11/11 11:18:11;;;;;;;33.10;19.40;;;;;;;12.10;82.99;102491.69;108397;1251;61141;-78
2022/11/11 11:21:02;;;;;;;34.40;20.90;;;;;;;12.18;82.67;102490.75;108255;1256;70404;-78
2022/11/11 11:23:49;;;;;;;33.50;19.30;;;;;;;12.33;81.65;102486.64;108235;1253;73692;-76
2022/11/11 11:26:50;;;;;;;30.40;18.30;;;;;;;12.35;81.01;102487.92;108106;1257;62977;-76
2022/11/11 11:29:43;;;;;;;32.90;18.10;;;;;;;12.41;80.77;102487.09;108126;1263;61642;-76
2022/11/11 11:32:31;;;;;;;29.80;18.30;;;;;;;12.38;80.62;102486.37;108299;1253;64314;-78
2022/11/11 11:35:52;;;;;;;30.80;18.30;;;;;;;12.51;79.92;102492.33;108220;1263;72084;-77
2022/11/11 11:38:46;;;;;;;31.70;20.10;;;;;;;12.42;79.76;102491.77;108081;1254;68499;-77
2022/11/11 11:41:49;;;;;;;34.00;19.40;;;;;;;12.35;80.57;102490.35;108106;1260;63539;-79
2022/11/11 11:44:38;;;;;;;28.60;16.40;;;;;;;12.25;80.72;102493.33;108020;1256;63438;-80
2022/11/11 11:47:46;;;;;;;27.00;16.90;;;;;;;12.39;79.58;102489.30;108104;1256;60603;-76
2022/11/11 11:51:08;;;;;;;27.10;16.20;;;;;;;12.43;78.86;102491.55;108191;1255;72627;-79
2022/11/11 11:55:00;;;;;;;29.30;17.00;;;;;;;12.45;78.53;102496.13;108093;1250;71050;-77
2022/11/11 11:57:56;;;;;;;30.90;18.40;;;;;;;12.37;79.22;102499.54;108051;1254;60037;-77
2022/11/11 12:01:15;;;;;;;33.10;18.80;;;;;;;12.33;79.58;102496.23;108282;1255;63179;-78
2022/11/11 12:04:17;;;;;;;32.40;17.70;;;;;;;12.36;78.48;102497.83;108385;1254;63484;-77
2022/11/11 12:07:25;;;;;;;28.80;17.50;;;;;;;12.30;78.54;102496.95;108110;1263;57778;-78
2022/11/11 12:10:37;;;;;;;32.30;18.00;;;;;;;12.37;78.56;102492.52;108234;1257;72771;-78
2022/11/11 12:14:01;;;;;;;28.40;17.00;;;;;;;12.50;78.49;102490.31;108454;1249;61472;-76
2022/11/11 12:17:41;;;;;;;29.20;17.30;;;;;;;12.56;78.04;102486.13;108117;1257;69668;-78
2022/11/11 12:20:39;;;;;;;30.00;18.60;;;;;;;12.76;77.57;102486.65;108378;1252;64258;-78
2022/11/11 12:24:08;;;;;;;27.10;17.80;;;;;;;12.77;76.73;102486.62;108311;1257;57741;-78
2022/11/11 12:27:58;;;;;;;28.30;16.70;;;;;;;12.74;76.35;102485.16;108245;1257;60472;-77
2022/11/11 12:30:55;;;;;;;31.80;18.30;;;;;;;12.81;75.63;102482.91;108272;1254;73932;-79
2022/11/11 12:34:04;;;;;;;30.40;18.00;;;;;;;12.95;75.43;102484.22;108340;1258;72389;-78
2022/11/11 12:37:21;;;;;;;27.60;16.70;;;;;;;12.96;75.03;102484.48;108402;1252;71293;-76
2022/11/11 12:40:38;;;;;;;25.90;17.60;;;;;;;12.83;74.96;102487.34;108219;1256;63586;-77
2022/11/11 12:43:54;;;;;;;28.40;17.30;;;;;;;12.62;75.12;102493.85;108339;1263;57567;-80
2022/11/11 12:46:54;;;;;;;27.70;16.90;;;;;;;12.45;75.90;102486.90;108309;1249;59406;-78
2022/11/11 12:49:53;;;;;;;32.70;18.30;;;;;;;12.30;76.69;102486.28;108325;1260;63382;-79
2022/11/11 12:53:09;;;;;;;27.10;17.30;;;;;;;12.29;77.22;102489.66;108543;1246;71926;-77
2022/11/11 12:56:37;;;;;;;29.40;17.50;;;;;;;12.14;77.89;102490.59;108306;1255;70284;-76
2022/11/11 13:00:09;;;;;;;34.60;17.90;;;;;;;11.99;78.29;102486.98;108500;1252;73125;-76
2022/11/11 13:03:24;;;;;;;28.70;18.20;;;;;;;11.90;78.81;102499.97;108331;1258;61842;-77
2022/11/11 13:06:31;;;;;;;27.40;17.50;;;;;;;11.92;78.58;102502.15;108398;1257;57643;-77
2022/11/11 13:09:51;;;;;;;28.90;17.60;;;;;;;11.93;78.60;102494.23;108351;1257;62050;-79
2022/11/11 13:13:02;;;;;;;29.30;17.20;;;;;;;11.88;78.96;102500.96;108378;1252;70373;-78
2022/11/11 13:15:49;;;;;;;30.80;18.40;;;;;;;11.88;79.15;102499.91;108452;1257;59806;-76
2022/11/11 13:19:17;;;;;;;32.70;18.60;;;;;;;11.83;79.71;102496.13;108398;1251;74544;-78
2022/11/11 13:22:13;;;;;;;34.00;18.90;;;;;;;11.89;79.75;102496.58;108465;1251;57639;-77
2022/11/11 13:25:22;;;;;;;27.50;18.50;;;;;;;11.87;80.00;102498.91;108373;1253;57324;-79
2022/11/11 13:28:22;;;;;;;28.90;18.20;;;;;;;11.88;80.30;102503.06;108240;1260;62246;-77
2022/11/11 13:31:38;;;;;;;31.00;18.70;;;;;;;11.84;81.04;102502.72;108350;1252;72137;-79
2022/11/11 13:34:33;;;;;;;33.10;19.20;;;;;;;11.85;80.97;102506.88;108353;1257;60416;-78
2022/11/11 13:37:29;;;;;;;27.80;18.20;;;;;;;11.81;81.08;102504.10;108349;1264;62494;-76
2022/11/11 13:40:39;;;;;;;31.80;17.50;;;;;;;11.56;82.14;102505.82;108271;1260;62960;-76
2022/11/11 13:43:47;;;;;;;27.50;17.10;;;;;;;11.62;81.77;102507.13;108397;1262;57678;-76
2022/11/11 13:46:47;;;;;;;28.10;16.90;;;;;;;11.58;81.59;102505.54;108356;1263;72683;-78
2022/11/11 13:50:00;;;;;;;27.20;16.00;;;;;;;11.60;81.57;102507.54;108467;1248;72135;-77
2022/11/11 13:53:05;;;;;;;29.20;16.50;;;;;;;11.52;81.11;102511.44;108341;1261;68755;-76
2022/11/11 13:56:01;;;;;;;27.40;16.30;;;;;;;11.54;80.82;102505.57;108281;1257;63189;-78
2022/11/11 13:58:57;;;;;;;26.10;15.60;;;;;;;11.50;80.78;102507.69;108231;1262;57742;-79
2022/11/11 14:01:45;;;;;;;26.90;15.80;;;;;;;11.51;80.71;102508.67;108312;1255;57653;-77
2022/11/11 14:05:07;;;;;;;26.90;15.90;;;;;;;11.48;80.70;102510.71;108396;1249;62913;-77
2022/11/11 14:07:56;;;;;;;25.70;16.30;;;;;;;11.36;81.10;102516.38;108441;1251;70078;-77
2022/11/11 14:11:09;;;;;;;25.80;15.70;;;;;;;11.33;81.37;102514.59;108412;1252;59929;-77
2022/11/11 14:14:47;;;;;;;28.50;16.30;;;;;;;11.32;81.56;102514.63;108404;1257;62380;-76